sensor_id;sensor_type;location;lat;lon;timestamp;temperature;humidity
1461;DHT22;724;49.910;12.530;2023-07-22T00:01:02;11.80;99.90
1461;DHT22;724;49.910;12.530;2023-07-22T00:03:29;11.70;99.90
1461;DHT22;724;49.910;12.530;2023-07-22T00:06:03;11.70;99.90
1461;DHT22;724;49.910;12.530;2023-07-22T00:08:31;11.70;99.90
1461;DHT22;724;49.910;12.530;2023-07-22T00:11:03;11.70;99.90
1461;DHT22;724;49.910;12.530;2023-07-22T00:13:35;11.80;99.90
1461;DHT22;724;49.910;12.530;2023-07-22T00:16:02;11.80;99.90
1461;DHT22;724;49.910;12.530;2023-07-22T00:18:30;11.80;99.90
1461;DHT22;724;49.910;12.530;2023-07-22T00:21:03;11.90;99.90
1461;DHT22;724;49.910;12.530;2023-07-22T00:23:34;11.90;99.90
1461;DHT22;724;49.910;12.530;2023-07-22T00:26:01;11.90;99.90
1461;DHT22;724;49.910;12.530;2023-07-22T00:28:28;11.90;99.90
1461;DHT22;724;49.910;12.530;2023-07-22T00:30:56;11.90;99.90
1461;DHT22;724;49.910;12.530;2023-07-22T00:33:23;11.90;99.90
1461;DHT22;724;49.910;12.530;2023-07-22T00:35:51;11.90;99.90
1461;DHT22;724;49.910;12.530;2023-07-22T00:38:18;11.90;99.90
1461;DHT22;724;49.910;12.530;2023-07-22T00:40:45;11.90;99.90
1461;DHT22;724;49.910;12.530;2023-07-22T00:43:12;11.90;99.90
1461;DHT22;724;49.910;12.530;2023-07-22T00:45:42;11.90;99.90
1461;DHT22;724;49.910;12.530;2023-07-22T00:48:11;12.00;99.90
1461;DHT22;724;49.910;12.530;2023-07-22T00:50:39;12.00;99.90
1461;DHT22;724;49.910;12.530;2023-07-22T00:53:06;12.10;99.90
1461;DHT22;724;49.910;12.530;2023-07-22T00:55:33;12.10;99.90
1461;DHT22;724;49.910;12.530;2023-07-22T00:58:01;12.10;99.90
1461;DHT22;724;49.910;12.530;2023-07-22T01:00:28;12.10;99.90
1461;DHT22;724;49.910;12.530;2023-07-22T01:02:55;12.20;99.90
1461;DHT22;724;49.910;12.530;2023-07-22T01:05:27;12.20;99.90
1461;DHT22;724;49.910;12.530;2023-07-22T01:07:54;12.20;99.90
1461;DHT22;724;49.910;12.530;2023-07-22T01:10:22;12.20;99.90
1461;DHT22;724;49.910;12.530;2023-07-22T01:12:48;12.20;99.90
1461;DHT22;724;49.910;12.530;2023-07-22T01:15:15;12.30;99.90
1461;DHT22;724;49.910;12.530;2023-07-22T01:17:46;12.30;99.90
1461;DHT22;724;49.910;12.530;2023-07-22T01:20:16;12.30;99.90
1461;DHT22;724;49.910;12.530;2023-07-22T01:22:50;12.30;99.90
1461;DHT22;724;49.910;12.530;2023-07-22T01:25:19;12.30;99.90
1461;DHT22;724;49.910;12.530;2023-07-22T01:27:47;12.40;99.90
1461;DHT22;724;49.910;12.530;2023-07-22T01:30:14;12.30;99.90
1461;DHT22;724;49.910;12.530;2023-07-22T01:32:41;12.30;99.90
1461;DHT22;724;49.910;12.530;2023-07-22T01:35:09;12.30;99.90
1461;DHT22;724;49.910;12.530;2023-07-22T01:37:35;12.30;99.90
1461;DHT22;724;49.910;12.530;2023-07-22T01:40:04;12.30;99.90
1461;DHT22;724;49.910;12.530;2023-07-22T01:42:37;12.30;99.90
1461;DHT22;724;49.910;12.530;2023-07-22T01:45:05;12.30;99.90
1461;DHT22;724;49.910;12.530;2023-07-22T01:47:34;12.30;99.90
1461;DHT22;724;49.910;12.530;2023-07-22T01:50:02;12.30;99.90
1461;DHT22;724;49.910;12.530;2023-07-22T01:52:29;12.40;99.90
1461;DHT22;724;49.910;12.530;2023-07-22T01:54:58;12.40;99.90
1461;DHT22;724;49.910;12.530;2023-07-22T01:57:27;12.30;99.90
1461;DHT22;724;49.910;12.530;2023-07-22T01:59:53;12.30;99.90
1461;DHT22;724;49.910;12.530;2023-07-22T02:02:21;12.30;99.90
1461;DHT22;724;49.910;12.530;2023-07-22T02:04:48;12.30;99.90
1461;DHT22;724;49.910;12.530;2023-07-22T02:07:15;12.30;99.90
1461;DHT22;724;49.910;12.530;2023-07-22T02:09:41;12.30;99.90
1461;DHT22;724;49.910;12.530;2023-07-22T02:12:08;12.30;99.90
1461;DHT22;724;49.910;12.530;2023-07-22T02:14:37;12.30;99.90
1461;DHT22;724;49.910;12.530;2023-07-22T02:17:04;12.20;99.90
1461;DHT22;724;49.910;12.530;2023-07-22T02:19:34;12.20;99.90
1461;DHT22;724;49.910;12.530;2023-07-22T02:22:03;12.20;99.90
1461;DHT22;724;49.910;12.530;2023-07-22T02:24:31;12.10;99.90
1461;DHT22;724;49.910;12.530;2023-07-22T02:26:58;12.10;99.90
1461;DHT22;724;49.910;12.530;2023-07-22T02:29:25;12.00;99.90
1461;DHT22;724;49.910;12.530;2023-07-22T02:31:53;12.10;99.90
1461;DHT22;724;49.910;12.530;2023-07-22T02:34:19;12.10;99.90
1461;DHT22;724;49.910;12.530;2023-07-22T02:36:47;12.10;99.90
1461;DHT22;724;49.910;12.530;2023-07-22T02:39:13;12.20;99.90
1461;DHT22;724;49.910;12.530;2023-07-22T02:41:40;12.10;99.90
1461;DHT22;724;49.910;12.530;2023-07-22T02:44:07;12.10;99.90
1461;DHT22;724;49.910;12.530;2023-07-22T02:46:34;12.10;99.90
1461;DHT22;724;49.910;12.530;2023-07-22T02:49:02;12.10;99.90
1461;DHT22;724;49.910;12.530;2023-07-22T02:51:29;12.10;99.90
1461;DHT22;724;49.910;12.530;2023-07-22T02:53:56;12.10;99.90
1461;DHT22;724;49.910;12.530;2023-07-22T02:56:23;12.10;99.90
1461;DHT22;724;49.910;12.530;2023-07-22T02:58:50;12.10;99.90
1461;DHT22;724;49.910;12.530;2023-07-22T03:01:17;12.10;99.90
1461;DHT22;724;49.910;12.530;2023-07-22T03:03:44;12.10;99.90
1461;DHT22;724;49.910;12.530;2023-07-22T03:06:15;12.10;99.90
1461;DHT22;724;49.910;12.530;2023-07-22T03:08:42;12.10;99.90
1461;DHT22;724;49.910;12.530;2023-07-22T03:11:09;12.10;99.90
1461;DHT22;724;49.910;12.530;2023-07-22T03:13:35;12.10;99.90
1461;DHT22;724;49.910;12.530;2023-07-22T03:16:02;12.10;99.90
1461;DHT22;724;49.910;12.530;2023-07-22T03:18:29;12.10;99.90
1461;DHT22;724;49.910;12.530;2023-07-22T03:20:58;12.20;99.90
1461;DHT22;724;49.910;12.530;2023-07-22T03:23:26;12.20;99.90
1461;DHT22;724;49.910;12.530;2023-07-22T03:25:53;12.20;99.90
1461;DHT22;724;49.910;12.530;2023-07-22T03:28:19;12.10;99.90
1461;DHT22;724;49.910;12.530;2023-07-22T03:30:46;12.20;99.90
1461;DHT22;724;49.910;12.530;2023-07-22T03:33:13;12.20;99.90
1461;DHT22;724;49.910;12.530;2023-07-22T03:35:41;12.20;99.90
1461;DHT22;724;49.910;12.530;2023-07-22T03:38:08;12.20;99.90
1461;DHT22;724;49.910;12.530;2023-07-22T03:40:36;12.20;99.90
1461;DHT22;724;49.910;12.530;2023-07-22T03:43:03;12.20;99.90
1461;DHT22;724;49.910;12.530;2023-07-22T03:45:30;12.20;99.90
1461;DHT22;724;49.910;12.530;2023-07-22T03:47:58;12.20;99.90
1461;DHT22;724;49.910;12.530;2023-07-22T03:50:25;12.20;99.90
1461;DHT22;724;49.910;12.530;2023-07-22T03:52:52;12.20;99.90
1461;DHT22;724;49.910;12.530;2023-07-22T03:55:19;12.20;99.90
1461;DHT22;724;49.910;12.530;2023-07-22T03:57:48;12.30;99.90
1461;DHT22;724;49.910;12.530;2023-07-22T04:00:15;12.30;99.90
1461;DHT22;724;49.910;12.530;2023-07-22T04:02:42;12.20;99.90
1461;DHT22;724;49.910;12.530;2023-07-22T04:05:09;12.20;99.90
1461;DHT22;724;49.910;12.530;2023-07-22T04:07:36;12.30;99.90
1461;DHT22;724;49.910;12.530;2023-07-22T04:10:04;12.30;99.90
1461;DHT22;724;49.910;12.530;2023-07-22T04:12:35;12.30;99.90
1461;DHT22;724;49.910;12.530;2023-07-22T04:15:03;12.30;99.90
1461;DHT22;724;49.910;12.530;2023-07-22T04:17:30;12.40;99.90
1461;DHT22;724;49.910;12.530;2023-07-22T04:19:57;12.50;99.90
1461;DHT22;724;49.910;12.530;2023-07-22T04:22:24;12.50;99.90
1461;DHT22;724;49.910;12.530;2023-07-22T04:24:51;12.50;99.90
1461;DHT22;724;49.910;12.530;2023-07-22T04:27:19;12.40;99.90
1461;DHT22;724;49.910;12.530;2023-07-22T04:29:46;12.50;99.90
1461;DHT22;724;49.910;12.530;2023-07-22T04:32:14;12.40;99.90
1461;DHT22;724;49.910;12.530;2023-07-22T04:34:41;12.50;99.90
1461;DHT22;724;49.910;12.530;2023-07-22T04:37:08;12.50;99.90
1461;DHT22;724;49.910;12.530;2023-07-22T04:39:34;12.50;99.90
1461;DHT22;724;49.910;12.530;2023-07-22T04:42:01;12.50;99.90
1461;DHT22;724;49.910;12.530;2023-07-22T04:44:28;12.40;99.90
1461;DHT22;724;49.910;12.530;2023-07-22T04:46:55;12.40;99.90
1461;DHT22;724;49.910;12.530;2023-07-22T04:49:23;12.60;99.90
1461;DHT22;724;49.910;12.530;2023-07-22T04:51:50;12.60;1.00
1461;DHT22;724;49.910;12.530;2023-07-22T04:54:17;12.60;1.00
1461;DHT22;724;49.910;12.530;2023-07-22T04:56:44;12.70;1.00
1461;DHT22;724;49.910;12.530;2023-07-22T04:59:11;12.60;1.00
1461;DHT22;724;49.910;12.530;2023-07-22T05:01:39;12.60;70.80
1461;DHT22;724;49.910;12.530;2023-07-22T05:04:06;12.70;1.00
1461;DHT22;724;49.910;12.530;2023-07-22T05:06:34;12.70;1.00
1461;DHT22;724;49.910;12.530;2023-07-22T05:09:02;12.60;1.00
1461;DHT22;724;49.910;12.530;2023-07-22T05:11:29;12.70;72.10
1461;DHT22;724;49.910;12.530;2023-07-22T05:13:56;12.70;99.90
1461;DHT22;724;49.910;12.530;2023-07-22T05:16:23;12.80;99.90
1461;DHT22;724;49.910;12.530;2023-07-22T05:18:50;12.80;1.00
1461;DHT22;724;49.910;12.530;2023-07-22T05:21:17;12.90;1.00
1461;DHT22;724;49.910;12.530;2023-07-22T05:23:45;12.90;1.00
1461;DHT22;724;49.910;12.530;2023-07-22T05:26:14;12.90;1.00
1461;DHT22;724;49.910;12.530;2023-07-22T05:28:41;12.90;1.00
1461;DHT22;724;49.910;12.530;2023-07-22T05:31:08;12.90;1.00
1461;DHT22;724;49.910;12.530;2023-07-22T05:33:34;12.80;99.90
1461;DHT22;724;49.910;12.530;2023-07-22T05:36:03;12.90;99.90
1461;DHT22;724;49.910;12.530;2023-07-22T05:38:30;12.90;99.90
1461;DHT22;724;49.910;12.530;2023-07-22T05:40:58;13.00;1.00
1461;DHT22;724;49.910;12.530;2023-07-22T05:43:26;13.00;1.00
1461;DHT22;724;49.910;12.530;2023-07-22T05:45:54;12.90;1.00
1461;DHT22;724;49.910;12.530;2023-07-22T05:48:24;13.10;13.00
1461;DHT22;724;49.910;12.530;2023-07-22T05:50:51;13.00;1.00
1461;DHT22;724;49.910;12.530;2023-07-22T05:53:18;13.10;1.00
1461;DHT22;724;49.910;12.530;2023-07-22T05:55:44;13.10;1.00
1461;DHT22;724;49.910;12.530;2023-07-22T05:58:16;13.20;1.00
1461;DHT22;724;49.910;12.530;2023-07-22T06:00:44;13.30;1.00
1461;DHT22;724;49.910;12.530;2023-07-22T06:03:11;13.50;99.90
1461;DHT22;724;49.910;12.530;2023-07-22T06:05:38;13.40;99.90
1461;DHT22;724;49.910;12.530;2023-07-22T06:08:06;13.30;1.00
1461;DHT22;724;49.910;12.530;2023-07-22T06:10:33;13.50;1.00
1461;DHT22;724;49.910;12.530;2023-07-22T06:13:02;13.50;1.00
1461;DHT22;724;49.910;12.530;2023-07-22T06:15:30;13.50;1.00
1461;DHT22;724;49.910;12.530;2023-07-22T06:17:57;13.50;1.00
1461;DHT22;724;49.910;12.530;2023-07-22T06:20:24;13.60;1.00
1461;DHT22;724;49.910;12.530;2023-07-22T06:22:51;13.40;1.00
1461;DHT22;724;49.910;12.530;2023-07-22T06:25:21;13.50;1.00
1461;DHT22;724;49.910;12.530;2023-07-22T06:27:48;13.40;1.00
1461;DHT22;724;49.910;12.530;2023-07-22T06:30:15;13.70;1.00
1461;DHT22;724;49.910;12.530;2023-07-22T06:32:43;13.90;99.90
1461;DHT22;724;49.910;12.530;2023-07-22T06:35:09;14.20;1.00
1461;DHT22;724;49.910;12.530;2023-07-22T06:37:36;14.30;1.00
1461;DHT22;724;49.910;12.530;2023-07-22T06:40:04;15.00;99.90
1461;DHT22;724;49.910;12.530;2023-07-22T06:42:31;15.50;18.70
1461;DHT22;724;49.910;12.530;2023-07-22T06:44:57;15.60;1.00
1461;DHT22;724;49.910;12.530;2023-07-22T06:47:24;15.30;1.00
1461;DHT22;724;49.910;12.530;2023-07-22T06:49:52;15.80;99.90
1461;DHT22;724;49.910;12.530;2023-07-22T06:52:19;16.30;99.90
1461;DHT22;724;49.910;12.530;2023-07-22T06:54:46;16.80;74.20
1461;DHT22;724;49.910;12.530;2023-07-22T06:57:12;16.90;1.00
1461;DHT22;724;49.910;12.530;2023-07-22T06:59:39;16.90;1.00
1461;DHT22;724;49.910;12.530;2023-07-22T07:02:06;17.10;1.00
1461;DHT22;724;49.910;12.530;2023-07-22T07:04:33;16.40;1.00
1461;DHT22;724;49.910;12.530;2023-07-22T07:07:02;15.80;1.00
1461;DHT22;724;49.910;12.530;2023-07-22T07:09:29;16.40;1.00
1461;DHT22;724;49.910;12.530;2023-07-22T07:11:55;17.00;1.00
1461;DHT22;724;49.910;12.530;2023-07-22T07:14:22;17.60;1.00
1461;DHT22;724;49.910;12.530;2023-07-22T07:16:50;17.20;1.00
1461;DHT22;724;49.910;12.530;2023-07-22T07:19:16;17.30;1.00
1461;DHT22;724;49.910;12.530;2023-07-22T07:21:43;18.40;1.00
1461;DHT22;724;49.910;12.530;2023-07-22T07:24:11;18.10;1.00
1461;DHT22;724;49.910;12.530;2023-07-22T07:26:38;18.10;1.00
1461;DHT22;724;49.910;12.530;2023-07-22T07:29:05;17.80;1.00
1461;DHT22;724;49.910;12.530;2023-07-22T07:31:31;17.90;1.00
1461;DHT22;724;49.910;12.530;2023-07-22T07:33:58;18.00;1.00
1461;DHT22;724;49.910;12.530;2023-07-22T07:36:25;16.80;1.00
1461;DHT22;724;49.910;12.530;2023-07-22T07:38:52;17.10;1.00
1461;DHT22;724;49.910;12.530;2023-07-22T07:41:21;17.50;1.00
1461;DHT22;724;49.910;12.530;2023-07-22T07:43:48;17.40;1.00
1461;DHT22;724;49.910;12.530;2023-07-22T07:46:19;17.00;1.00
1461;DHT22;724;49.910;12.530;2023-07-22T07:48:48;16.90;1.00
1461;DHT22;724;49.910;12.530;2023-07-22T07:51:16;16.50;1.00
1461;DHT22;724;49.910;12.530;2023-07-22T07:53:44;16.50;1.00
1461;DHT22;724;49.910;12.530;2023-07-22T07:56:13;16.40;1.00
1461;DHT22;724;49.910;12.530;2023-07-22T07:58:41;16.30;1.00
1461;DHT22;724;49.910;12.530;2023-07-22T08:01:08;16.20;1.00
1461;DHT22;724;49.910;12.530;2023-07-22T08:03:36;16.30;1.00
1461;DHT22;724;49.910;12.530;2023-07-22T08:06:03;16.10;1.00
1461;DHT22;724;49.910;12.530;2023-07-22T08:08:32;16.20;1.00
1461;DHT22;724;49.910;12.530;2023-07-22T08:10:59;16.30;1.00
1461;DHT22;724;49.910;12.530;2023-07-22T08:13:26;16.20;1.00
1461;DHT22;724;49.910;12.530;2023-07-22T08:15:56;16.20;1.00
1461;DHT22;724;49.910;12.530;2023-07-22T08:18:24;16.30;1.00
1461;DHT22;724;49.910;12.530;2023-07-22T08:20:52;17.00;1.00
1461;DHT22;724;49.910;12.530;2023-07-22T08:23:19;16.60;99.90
1461;DHT22;724;49.910;12.530;2023-07-22T08:25:46;16.60;1.00
1461;DHT22;724;49.910;12.530;2023-07-22T08:28:13;16.50;1.00
1461;DHT22;724;49.910;12.530;2023-07-22T08:30:42;16.30;99.90
1461;DHT22;724;49.910;12.530;2023-07-22T08:33:11;16.20;99.90
1461;DHT22;724;49.910;12.530;2023-07-22T08:35:38;16.20;99.90
1461;DHT22;724;49.910;12.530;2023-07-22T08:38:06;16.00;99.90
1461;DHT22;724;49.910;12.530;2023-07-22T08:40:34;16.30;99.90
1461;DHT22;724;49.910;12.530;2023-07-22T08:43:02;16.00;99.90
1461;DHT22;724;49.910;12.530;2023-07-22T08:45:31;15.90;99.90
1461;DHT22;724;49.910;12.530;2023-07-22T08:48:02;15.70;99.90
1461;DHT22;724;49.910;12.530;2023-07-22T08:50:34;15.60;99.90
1461;DHT22;724;49.910;12.530;2023-07-22T08:53:01;15.30;99.90
1461;DHT22;724;49.910;12.530;2023-07-22T08:55:28;15.30;99.90
1461;DHT22;724;49.910;12.530;2023-07-22T08:57:56;15.20;99.90
1461;DHT22;724;49.910;12.530;2023-07-22T09:00:24;15.30;99.90
1461;DHT22;724;49.910;12.530;2023-07-22T09:02:51;15.50;99.90
1461;DHT22;724;49.910;12.530;2023-07-22T09:05:19;15.20;99.90
1461;DHT22;724;49.910;12.530;2023-07-22T09:07:48;15.20;99.90
1461;DHT22;724;49.910;12.530;2023-07-22T09:10:19;15.20;99.90
1461;DHT22;724;49.910;12.530;2023-07-22T09:12:47;15.20;99.90
1461;DHT22;724;49.910;12.530;2023-07-22T09:15:14;15.10;99.90
1461;DHT22;724;49.910;12.530;2023-07-22T09:17:41;15.10;99.90
1461;DHT22;724;49.910;12.530;2023-07-22T09:20:08;15.00;99.90
1461;DHT22;724;49.910;12.530;2023-07-22T09:22:43;15.30;99.90
1461;DHT22;724;49.910;12.530;2023-07-22T09:25:16;15.20;99.90
1461;DHT22;724;49.910;12.530;2023-07-22T09:27:44;15.60;99.90
1461;DHT22;724;49.910;12.530;2023-07-22T09:30:21;15.50;99.90
1461;DHT22;724;49.910;12.530;2023-07-22T09:32:49;15.60;99.90
1461;DHT22;724;49.910;12.530;2023-07-22T09:35:16;16.00;99.90
1461;DHT22;724;49.910;12.530;2023-07-22T09:37:43;15.90;99.90
1461;DHT22;724;49.910;12.530;2023-07-22T09:40:22;15.90;99.90
1461;DHT22;724;49.910;12.530;2023-07-22T09:42:50;16.10;99.90
1461;DHT22;724;49.910;12.530;2023-07-22T09:45:18;16.00;99.90
1461;DHT22;724;49.910;12.530;2023-07-22T09:47:46;15.90;99.90
1461;DHT22;724;49.910;12.530;2023-07-22T09:50:15;16.10;99.90
1461;DHT22;724;49.910;12.530;2023-07-22T09:52:45;15.90;99.90
1461;DHT22;724;49.910;12.530;2023-07-22T09:55:14;16.00;99.90
1461;DHT22;724;49.910;12.530;2023-07-22T09:57:44;16.10;99.90
1461;DHT22;724;49.910;12.530;2023-07-22T10:00:12;16.20;99.90
1461;DHT22;724;49.910;12.530;2023-07-22T10:02:41;15.80;99.90
1461;DHT22;724;49.910;12.530;2023-07-22T10:05:12;15.70;99.90
1461;DHT22;724;49.910;12.530;2023-07-22T10:07:44;16.00;99.90
1461;DHT22;724;49.910;12.530;2023-07-22T10:10:12;16.20;99.90
1461;DHT22;724;49.910;12.530;2023-07-22T10:12:40;16.20;99.90
1461;DHT22;724;49.910;12.530;2023-07-22T10:15:10;16.10;99.90
1461;DHT22;724;49.910;12.530;2023-07-22T10:17:37;16.30;99.90
1461;DHT22;724;49.910;12.530;2023-07-22T10:20:05;16.00;99.90
1461;DHT22;724;49.910;12.530;2023-07-22T10:22:35;16.00;99.90
1461;DHT22;724;49.910;12.530;2023-07-22T10:25:04;16.00;99.90
1461;DHT22;724;49.910;12.530;2023-07-22T10:27:32;16.20;99.90
1461;DHT22;724;49.910;12.530;2023-07-22T10:29:59;16.00;99.90
1461;DHT22;724;49.910;12.530;2023-07-22T10:32:33;16.20;99.90
1461;DHT22;724;49.910;12.530;2023-07-22T10:35:00;16.80;99.90
1461;DHT22;724;49.910;12.530;2023-07-22T10:37:30;16.90;99.90
1461;DHT22;724;49.910;12.530;2023-07-22T10:40:00;17.20;99.90
1461;DHT22;724;49.910;12.530;2023-07-22T10:42:27;16.80;99.90
1461;DHT22;724;49.910;12.530;2023-07-22T10:44:53;16.60;99.90
1461;DHT22;724;49.910;12.530;2023-07-22T10:47:33;17.00;99.90
1461;DHT22;724;49.910;12.530;2023-07-22T10:50:06;17.60;99.90
1461;DHT22;724;49.910;12.530;2023-07-22T10:52:40;19.00;99.90
1461;DHT22;724;49.910;12.530;2023-07-22T10:55:14;19.00;99.90
1461;DHT22;724;49.910;12.530;2023-07-22T10:57:48;18.00;99.90
1461;DHT22;724;49.910;12.530;2023-07-22T11:00:18;18.10;99.90
1461;DHT22;724;49.910;12.530;2023-07-22T11:02:47;18.30;99.90
1461;DHT22;724;49.910;12.530;2023-07-22T11:05:16;18.10;99.90
1461;DHT22;724;49.910;12.530;2023-07-22T11:07:44;18.60;99.90
1461;DHT22;724;49.910;12.530;2023-07-22T11:10:15;18.30;99.90
1461;DHT22;724;49.910;12.530;2023-07-22T11:12:43;18.70;99.90
1461;DHT22;724;49.910;12.530;2023-07-22T11:15:10;18.80;99.90
1461;DHT22;724;49.910;12.530;2023-07-22T11:17:37;18.70;99.90
1461;DHT22;724;49.910;12.530;2023-07-22T11:20:06;18.60;99.90
1461;DHT22;724;49.910;12.530;2023-07-22T11:22:33;18.70;99.90
1461;DHT22;724;49.910;12.530;2023-07-22T11:25:00;18.40;99.90
1461;DHT22;724;49.910;12.530;2023-07-22T11:27:28;18.40;99.90
1461;DHT22;724;49.910;12.530;2023-07-22T11:29:57;18.80;99.90
1461;DHT22;724;49.910;12.530;2023-07-22T11:32:24;19.40;99.90
1461;DHT22;724;49.910;12.530;2023-07-22T11:34:52;19.60;99.90
1461;DHT22;724;49.910;12.530;2023-07-22T11:37:20;18.80;99.90
1461;DHT22;724;49.910;12.530;2023-07-22T11:39:47;19.20;99.90
1461;DHT22;724;49.910;12.530;2023-07-22T11:42:14;19.20;99.90
1461;DHT22;724;49.910;12.530;2023-07-22T11:44:41;19.60;99.90
1461;DHT22;724;49.910;12.530;2023-07-22T11:47:08;19.80;99.90
1461;DHT22;724;49.910;12.530;2023-07-22T11:49:36;19.80;99.90
1461;DHT22;724;49.910;12.530;2023-07-22T11:52:04;19.60;99.90
1461;DHT22;724;49.910;12.530;2023-07-22T11:54:35;19.70;99.90
1461;DHT22;724;49.910;12.530;2023-07-22T11:57:13;19.10;99.90
1461;DHT22;724;49.910;12.530;2023-07-22T11:59:43;18.80;99.90
1461;DHT22;724;49.910;12.530;2023-07-22T12:02:13;19.30;99.90
1461;DHT22;724;49.910;12.530;2023-07-22T12:04:40;19.10;99.90
1461;DHT22;724;49.910;12.530;2023-07-22T12:07:21;19.20;97.70
1461;DHT22;724;49.910;12.530;2023-07-22T12:09:50;19.80;98.40
1461;DHT22;724;49.910;12.530;2023-07-22T12:12:17;20.10;97.20
1461;DHT22;724;49.910;12.530;2023-07-22T12:14:44;19.80;86.40
1461;DHT22;724;49.910;12.530;2023-07-22T12:17:10;19.70;75.60
1461;DHT22;724;49.910;12.530;2023-07-22T12:19:37;19.00;55.70
1461;DHT22;724;49.910;12.530;2023-07-22T12:22:05;19.30;67.10
1461;DHT22;724;49.910;12.530;2023-07-22T12:24:32;19.50;60.70
1461;DHT22;724;49.910;12.530;2023-07-22T12:27:01;19.70;59.80
1461;DHT22;724;49.910;12.530;2023-07-22T12:29:28;19.70;47.80
1461;DHT22;724;49.910;12.530;2023-07-22T12:31:55;19.10;24.40
1461;DHT22;724;49.910;12.530;2023-07-22T12:34:22;19.80;44.50
1461;DHT22;724;49.910;12.530;2023-07-22T12:36:48;20.30;46.30
1461;DHT22;724;49.910;12.530;2023-07-22T12:39:15;19.80;25.90
1461;DHT22;724;49.910;12.530;2023-07-22T12:41:42;20.30;31.60
1461;DHT22;724;49.910;12.530;2023-07-22T12:44:10;20.00;19.20
1461;DHT22;724;49.910;12.530;2023-07-22T12:46:37;20.00;16.80
1461;DHT22;724;49.910;12.530;2023-07-22T12:49:04;20.40;23.60
1461;DHT22;724;49.910;12.530;2023-07-22T12:51:31;20.20;15.10
1461;DHT22;724;49.910;12.530;2023-07-22T12:53:58;20.10;4.70
1461;DHT22;724;49.910;12.530;2023-07-22T12:56:25;20.30;6.80
1461;DHT22;724;49.910;12.530;2023-07-22T12:58:51;20.10;1.00
1461;DHT22;724;49.910;12.530;2023-07-22T13:01:19;20.20;5.40
1461;DHT22;724;49.910;12.530;2023-07-22T13:03:46;20.50;3.50
1461;DHT22;724;49.910;12.530;2023-07-22T13:06:13;20.10;1.00
1461;DHT22;724;49.910;12.530;2023-07-22T13:08:40;19.90;1.00
1461;DHT22;724;49.910;12.530;2023-07-22T13:11:07;19.40;1.00
1461;DHT22;724;49.910;12.530;2023-07-22T13:13:33;19.30;1.00
1461;DHT22;724;49.910;12.530;2023-07-22T13:16:00;19.30;1.00
1461;DHT22;724;49.910;12.530;2023-07-22T13:18:28;19.50;1.00
1461;DHT22;724;49.910;12.530;2023-07-22T13:20:55;19.80;1.00
1461;DHT22;724;49.910;12.530;2023-07-22T13:23:22;19.80;1.00
1461;DHT22;724;49.910;12.530;2023-07-22T13:25:49;19.80;1.00
1461;DHT22;724;49.910;12.530;2023-07-22T13:28:15;19.90;1.00
1461;DHT22;724;49.910;12.530;2023-07-22T13:30:42;19.80;1.00
1461;DHT22;724;49.910;12.530;2023-07-22T13:33:09;20.10;1.00
1461;DHT22;724;49.910;12.530;2023-07-22T13:35:37;20.40;1.00
1461;DHT22;724;49.910;12.530;2023-07-22T13:38:04;20.40;1.00
1461;DHT22;724;49.910;12.530;2023-07-22T13:40:31;20.20;1.00
1461;DHT22;724;49.910;12.530;2023-07-22T13:42:57;20.10;1.00
1461;DHT22;724;49.910;12.530;2023-07-22T13:45:25;20.00;1.00
1461;DHT22;724;49.910;12.530;2023-07-22T13:47:52;20.40;1.00
1461;DHT22;724;49.910;12.530;2023-07-22T13:50:19;21.10;1.00
1461;DHT22;724;49.910;12.530;2023-07-22T13:52:48;21.10;1.00
1461;DHT22;724;49.910;12.530;2023-07-22T13:55:15;21.40;1.00
1461;DHT22;724;49.910;12.530;2023-07-22T13:57:42;20.80;1.00
1461;DHT22;724;49.910;12.530;2023-07-22T14:00:11;20.50;1.00
1461;DHT22;724;49.910;12.530;2023-07-22T14:02:40;21.00;1.00
1461;DHT22;724;49.910;12.530;2023-07-22T14:05:08;21.10;1.00
1461;DHT22;724;49.910;12.530;2023-07-22T14:07:35;20.60;1.00
1461;DHT22;724;49.910;12.530;2023-07-22T14:10:05;20.20;1.00
1461;DHT22;724;49.910;12.530;2023-07-22T14:12:32;20.50;1.00
1461;DHT22;724;49.910;12.530;2023-07-22T14:14:58;20.40;1.00
1461;DHT22;724;49.910;12.530;2023-07-22T14:17:25;20.50;1.00
1461;DHT22;724;49.910;12.530;2023-07-22T14:19:52;20.20;1.00
1461;DHT22;724;49.910;12.530;2023-07-22T14:22:19;20.70;1.00
1461;DHT22;724;49.910;12.530;2023-07-22T14:24:46;20.10;1.00
1461;DHT22;724;49.910;12.530;2023-07-22T14:27:14;20.00;1.00
1461;DHT22;724;49.910;12.530;2023-07-22T14:29:41;20.40;1.00
1461;DHT22;724;49.910;12.530;2023-07-22T14:32:09;20.70;1.00
1461;DHT22;724;49.910;12.530;2023-07-22T14:34:35;21.10;1.00
1461;DHT22;724;49.910;12.530;2023-07-22T14:37:02;21.20;1.00
1461;DHT22;724;49.910;12.530;2023-07-22T14:39:30;21.60;1.00
1461;DHT22;724;49.910;12.530;2023-07-22T14:41:56;21.80;1.00
1461;DHT22;724;49.910;12.530;2023-07-22T14:44:25;21.80;1.00
1461;DHT22;724;49.910;12.530;2023-07-22T14:46:52;21.60;1.00
1461;DHT22;724;49.910;12.530;2023-07-22T14:49:18;21.20;1.00
1461;DHT22;724;49.910;12.530;2023-07-22T14:51:45;21.40;1.00
1461;DHT22;724;49.910;12.530;2023-07-22T14:54:12;21.70;1.00
1461;DHT22;724;49.910;12.530;2023-07-22T14:56:39;21.20;1.00
1461;DHT22;724;49.910;12.530;2023-07-22T14:59:06;20.70;1.00
1461;DHT22;724;49.910;12.530;2023-07-22T15:04:10;20.70;1.00
1461;DHT22;724;49.910;12.530;2023-07-22T15:06:37;20.90;1.00
1461;DHT22;724;49.910;12.530;2023-07-22T15:09:04;21.30;1.00
1461;DHT22;724;49.910;12.530;2023-07-22T15:11:34;20.90;1.00
1461;DHT22;724;49.910;12.530;2023-07-22T15:14:01;20.80;1.00
1461;DHT22;724;49.910;12.530;2023-07-22T15:16:28;20.50;1.00
1461;DHT22;724;49.910;12.530;2023-07-22T15:18:55;20.50;1.00
1461;DHT22;724;49.910;12.530;2023-07-22T15:21:23;20.30;1.00
1461;DHT22;724;49.910;12.530;2023-07-22T15:23:49;20.30;1.00
1461;DHT22;724;49.910;12.530;2023-07-22T15:26:16;20.50;1.00
1461;DHT22;724;49.910;12.530;2023-07-22T15:28:43;20.10;1.00
1461;DHT22;724;49.910;12.530;2023-07-22T15:31:10;20.30;1.00
1461;DHT22;724;49.910;12.530;2023-07-22T15:33:37;20.30;1.00
1461;DHT22;724;49.910;12.530;2023-07-22T15:36:04;20.30;1.00
1461;DHT22;724;49.910;12.530;2023-07-22T15:38:32;20.90;1.00
1461;DHT22;724;49.910;12.530;2023-07-22T15:40:58;21.10;1.00
1461;DHT22;724;49.910;12.530;2023-07-22T15:43:25;21.00;1.00
1461;DHT22;724;49.910;12.530;2023-07-22T15:45:52;20.80;1.00
1461;DHT22;724;49.910;12.530;2023-07-22T15:48:19;20.70;1.00
1461;DHT22;724;49.910;12.530;2023-07-22T15:50:45;20.50;1.00
1461;DHT22;724;49.910;12.530;2023-07-22T15:53:15;20.60;1.00
1461;DHT22;724;49.910;12.530;2023-07-22T15:55:44;20.60;1.00
1461;DHT22;724;49.910;12.530;2023-07-22T15:58:10;20.80;1.00
1461;DHT22;724;49.910;12.530;2023-07-22T16:00:37;20.90;1.00
1461;DHT22;724;49.910;12.530;2023-07-22T16:03:04;20.90;1.00
1461;DHT22;724;49.910;12.530;2023-07-22T16:05:30;20.90;1.00
1461;DHT22;724;49.910;12.530;2023-07-22T16:07:57;20.50;1.00
1461;DHT22;724;49.910;12.530;2023-07-22T16:10:25;20.40;1.00
1461;DHT22;724;49.910;12.530;2023-07-22T16:12:53;20.40;1.00